sensor_id;sensor_type;location;lat;lon;timestamp;P1;P2;P0
76101;PMS7003;64830;46.910;6.354;2022-11-15T00:01:17;1.00;1.00;0.00
76101;PMS7003;64830;46.910;6.354;2022-11-15T00:03:43;0.75;0.00;0.00
76101;PMS7003;64830;46.910;6.354;2022-11-15T00:06:10;0.00;0.00;0.00
76101;PMS7003;64830;46.910;6.354;2022-11-15T00:08:35;1.50;1.00;0.25
76101;PMS7003;64830;46.910;6.354;2022-11-15T00:11:02;0.00;0.00;0.00
76101;PMS7003;64830;46.910;6.354;2022-11-15T00:13:28;0.00;0.00;0.00
76101;PMS7003;64830;46.910;6.354;2022-11-15T00:15:58;1.00;1.00;1.00
76101;PMS7003;64830;46.910;6.354;2022-11-15T00:18:25;0.75;0.75;0.00
76101;PMS7003;64830;46.910;6.354;2022-11-15T00:20:50;1.00;0.75;0.00
76101;PMS7003;64830;46.910;6.354;2022-11-15T00:23:16;0.50;0.50;0.00
76101;PMS7003;64830;46.910;6.354;2022-11-15T00:25:41;2.33;0.00;0.00
76101;PMS7003;64830;46.910;6.354;2022-11-15T00:28:07;0.00;0.00;0.00
76101;PMS7003;64830;46.910;6.354;2022-11-15T00:30:36;0.50;0.50;0.00
76101;PMS7003;64830;46.910;6.354;2022-11-15T00:33:02;0.00;0.00;0.00
76101;PMS7003;64830;46.910;6.354;2022-11-15T00:35:30;0.25;0.25;0.00
76101;PMS7003;64830;46.910;6.354;2022-11-15T00:37:57;0.00;0.00;0.00
76101;PMS7003;64830;46.910;6.354;2022-11-15T00:40:22;0.75;0.00;0.00
76101;PMS7003;64830;46.910;6.354;2022-11-15T00:42:48;0.00;0.00;0.00
76101;PMS7003;64830;46.910;6.354;2022-11-15T00:45:13;0.00;0.00;0.00
76101;PMS7003;64830;46.910;6.354;2022-11-15T00:47:38;0.75;0.00;0.00
76101;PMS7003;64830;46.910;6.354;2022-11-15T00:50:04;0.00;0.00;0.00
76101;PMS7003;64830;46.910;6.354;2022-11-15T00:52:29;0.00;0.00;0.00
76101;PMS7003;64830;46.910;6.354;2022-11-15T00:54:55;0.00;0.00;0.00
76101;PMS7003;64830;46.910;6.354;2022-11-15T00:57:20;0.00;0.00;0.00
76101;PMS7003;64830;46.910;6.354;2022-11-15T00:59:45;0.75;0.00;0.00
76101;PMS7003;64830;46.910;6.354;2022-11-15T01:02:11;1.00;0.00;0.00
76101;PMS7003;64830;46.910;6.354;2022-11-15T01:04:36;0.00;0.00;0.00
76101;PMS7003;64830;46.910;6.354;2022-11-15T01:07:02;0.00;0.00;0.00
76101;PMS7003;64830;46.910;6.354;2022-11-15T01:09:27;0.00;0.00;0.00
76101;PMS7003;64830;46.910;6.354;2022-11-15T01:11:52;0.00;0.00;0.00
76101;PMS7003;64830;46.910;6.354;2022-11-15T01:14:18;0.00;0.00;0.00
76101;PMS7003;64830;46.910;6.354;2022-11-15T01:16:43;0.00;0.00;0.00
76101;PMS7003;64830;46.910;6.354;2022-11-15T01:19:09;0.00;0.00;0.00
76101;PMS7003;64830;46.910;6.354;2022-11-15T01:21:34;1.00;0.00;0.00
76101;PMS7003;64830;46.910;6.354;2022-11-15T01:23:59;0.00;0.00;0.00
76101;PMS7003;64830;46.910;6.354;2022-11-15T01:26:25;0.25;0.00;0.00
76101;PMS7003;64830;46.910;6.354;2022-11-15T01:28:51;0.00;0.00;0.00
76101;PMS7003;64830;46.910;6.354;2022-11-15T01:31:19;0.00;0.00;0.00
76101;PMS7003;64830;46.910;6.354;2022-11-15T01:33:46;0.00;0.00;0.00
76101;PMS7003;64830;46.910;6.354;2022-11-15T01:36:16;0.00;0.00;0.00
76101;PMS7003;64830;46.910;6.354;2022-11-15T01:38:43;0.00;0.00;0.00
76101;PMS7003;64830;46.910;6.354;2022-11-15T01:41:19;0.00;0.00;0.00
76101;PMS7003;64830;46.910;6.354;2022-11-15T01:43:48;0.00;0.00;0.00
76101;PMS7003;64830;46.910;6.354;2022-11-15T01:49:01;0.00;0.00;0.00
76101;PMS7003;64830;46.910;6.354;2022-11-15T01:51:30;0.00;0.00;0.00
76101;PMS7003;64830;46.910;6.354;2022-11-15T01:54:03;0.00;0.00;0.00
76101;PMS7003;64830;46.910;6.354;2022-11-15T01:56:33;0.00;0.00;0.00
76101;PMS7003;64830;46.910;6.354;2022-11-15T01:59:03;0.00;0.00;0.00
76101;PMS7003;64830;46.910;6.354;2022-11-15T02:01:31;0.00;0.00;0.00
76101;PMS7003;64830;46.910;6.354;2022-11-15T02:03:59;0.00;0.00;0.00
76101;PMS7003;64830;46.910;6.354;2022-11-15T02:06:46;0.00;0.00;0.00
76101;PMS7003;64830;46.910;6.354;2022-11-15T02:09:13;1.00;0.75;0.00
76101;PMS7003;64830;46.910;6.354;2022-11-15T02:11:39;0.00;0.00;0.00
76101;PMS7003;64830;46.910;6.354;2022-11-15T02:14:05;0.00;0.00;0.00
76101;PMS7003;64830;46.910;6.354;2022-11-15T02:30:29;0.00;0.00;0.00
76101;PMS7003;64830;46.910;6.354;2022-11-15T02:33:21;0.00;0.00;0.00
76101;PMS7003;64830;46.910;6.354;2022-11-15T02:39:23;1.00;1.00;0.00
76101;PMS7003;64830;46.910;6.354;2022-11-15T02:41:53;0.00;0.00;0.00
76101;PMS7003;64830;46.910;6.354;2022-11-15T02:44:38;1.00;0.00;0.00
76101;PMS7003;64830;46.910;6.354;2022-11-15T02:47:11;0.50;0.50;0.00
76101;PMS7003;64830;46.910;6.354;2022-11-15T02:49:52;0.00;0.00;0.00
76101;PMS7003;64830;46.910;6.354;2022-11-15T02:52:20;0.00;0.00;0.00
76101;PMS7003;64830;46.910;6.354;2022-11-15T02:54:57;0.00;0.00;0.00
76101;PMS7003;64830;46.910;6.354;2022-11-15T03:00:17;0.00;0.00;0.00
76101;PMS7003;64830;46.910;6.354;2022-11-15T03:18:44;1.50;1.50;0.75
76101;PMS7003;64830;46.910;6.354;2022-11-15T03:21:14;1.00;1.00;1.00
76101;PMS7003;64830;46.910;6.354;2022-11-15T03:23:43;1.25;1.25;1.00
76101;PMS7003;64830;46.910;6.354;2022-11-15T03:26:12;2.25;1.00;0.25
76101;PMS7003;64830;46.910;6.354;2022-11-15T03:28:47;2.00;2.00;1.50
76101;PMS7003;64830;46.910;6.354;2022-11-15T03:31:18;1.00;1.00;0.50
76101;PMS7003;64830;46.910;6.354;2022-11-15T03:34:05;0.75;0.75;0.00
76101;PMS7003;64830;46.910;6.354;2022-11-15T03:36:35;1.75;0.00;0.00
76101;PMS7003;64830;46.910;6.354;2022-11-15T03:39:04;0.00;0.00;0.00
76101;PMS7003;64830;46.910;6.354;2022-11-15T03:41:36;0.00;0.00;0.00
76101;PMS7003;64830;46.910;6.354;2022-11-15T03:46:47;0.00;0.00;0.00
76101;PMS7003;64830;46.910;6.354;2022-11-15T03:49:33;0.50;0.50;0.50
76101;PMS7003;64830;46.910;6.354;2022-11-15T03:52:02;1.00;1.00;0.50
76101;PMS7003;64830;46.910;6.354;2022-11-15T03:54:28;4.75;4.75;3.25
76101;PMS7003;64830;46.910;6.354;2022-11-15T03:56:54;4.25;4.25;3.00
76101;PMS7003;64830;46.910;6.354;2022-11-15T03:59:19;0.00;0.00;0.00
76101;PMS7003;64830;46.910;6.354;2022-11-15T04:01:45;1.00;1.00;0.25
76101;PMS7003;64830;46.910;6.354;2022-11-15T04:04:10;1.00;1.00;0.75
76101;PMS7003;64830;46.910;6.354;2022-11-15T04:06:36;1.00;1.00;0.00
76101;PMS7003;64830;46.910;6.354;2022-11-15T04:09:01;1.00;1.00;1.00
76101;PMS7003;64830;46.910;6.354;2022-11-15T04:11:27;1.25;1.25;1.00
76101;PMS7003;64830;46.910;6.354;2022-11-15T04:13:52;1.00;1.00;1.00
76101;PMS7003;64830;46.910;6.354;2022-11-15T04:16:18;2.00;2.00;2.00
76101;PMS7003;64830;46.910;6.354;2022-11-15T04:18:43;1.75;1.75;1.00
76101;PMS7003;64830;46.910;6.354;2022-11-15T04:21:09;2.25;2.25;1.00
76101;PMS7003;64830;46.910;6.354;2022-11-15T04:23:52;3.00;3.00;1.75
76101;PMS7003;64830;46.910;6.354;2022-11-15T04:26:19;2.25;2.25;1.75
76101;PMS7003;64830;46.910;6.354;2022-11-15T04:28:46;2.50;2.50;2.00
76101;PMS7003;64830;46.910;6.354;2022-11-15T04:31:31;4.50;3.50;2.00
76101;PMS7003;64830;46.910;6.354;2022-11-15T04:33:56;2.00;2.00;2.00
76101;PMS7003;64830;46.910;6.354;2022-11-15T04:36:21;2.00;2.00;2.00
76101;PMS7003;64830;46.910;6.354;2022-11-15T04:39:05;2.00;2.00;2.00
76101;PMS7003;64830;46.910;6.354;2022-11-15T04:41:31;1.50;1.50;1.00
76101;PMS7003;64830;46.910;6.354;2022-11-15T04:43:56;3.00;3.00;3.00
76101;PMS7003;64830;46.910;6.354;2022-11-15T04:46:22;2.00;2.00;2.00
76101;PMS7003;64830;46.910;6.354;2022-11-15T04:48:48;2.00;2.00;1.00
76101;PMS7003;64830;46.910;6.354;2022-11-15T04:51:14;3.00;3.00;2.00
76101;PMS7003;64830;46.910;6.354;2022-11-15T04:53:40;1.75;1.75;1.75
76101;PMS7003;64830;46.910;6.354;2022-11-15T04:56:05;2.00;2.00;2.00
76101;PMS7003;64830;46.910;6.354;2022-11-15T04:58:31;2.50;2.00;2.00
76101;PMS7003;64830;46.910;6.354;2022-11-15T05:00:56;3.50;3.00;2.00
76101;PMS7003;64830;46.910;6.354;2022-11-15T05:03:21;4.50;3.00;2.25
76101;PMS7003;64830;46.910;6.354;2022-11-15T05:06:05;2.00;2.00;1.00
76101;PMS7003;64830;46.910;6.354;2022-11-15T05:08:31;3.00;3.00;2.00
76101;PMS7003;64830;46.910;6.354;2022-11-15T05:10:57;1.75;1.75;1.00
76101;PMS7003;64830;46.910;6.354;2022-11-15T05:13:22;3.00;3.00;1.00
76101;PMS7003;64830;46.910;6.354;2022-11-15T05:15:47;4.00;3.00;3.00
76101;PMS7003;64830;46.910;6.354;2022-11-15T05:18:13;3.75;2.00;2.00
76101;PMS7003;64830;46.910;6.354;2022-11-15T05:20:38;2.00;2.00;1.00
76101;PMS7003;64830;46.910;6.354;2022-11-15T05:23:04;3.50;3.00;2.00
76101;PMS7003;64830;46.910;6.354;2022-11-15T05:25:30;4.25;3.25;2.00
76101;PMS7003;64830;46.910;6.354;2022-11-15T05:27:55;4.00;3.00;1.50
76101;PMS7003;64830;46.910;6.354;2022-11-15T05:30:21;4.25;3.25;2.00
76101;PMS7003;64830;46.910;6.354;2022-11-15T05:32:46;5.50;4.25;3.00
76101;PMS7003;64830;46.910;6.354;2022-11-15T05:35:13;4.75;4.00;4.00
76101;PMS7003;64830;46.910;6.354;2022-11-15T05:37:45;3.25;3.00;2.00
76101;PMS7003;64830;46.910;6.354;2022-11-15T05:40:10;1.25;1.00;1.00
76101;PMS7003;64830;46.910;6.354;2022-11-15T05:42:35;3.00;2.00;1.75
76101;PMS7003;64830;46.910;6.354;2022-11-15T05:45:02;2.00;2.00;2.00
76101;PMS7003;64830;46.910;6.354;2022-11-15T05:47:31;4.00;4.00;3.00
76101;PMS7003;64830;46.910;6.354;2022-11-15T05:49:58;4.00;4.00;3.00
76101;PMS7003;64830;46.910;6.354;2022-11-15T05:52:25;1.00;1.00;1.00
76101;PMS7003;64830;46.910;6.354;2022-11-15T05:54:53;1.00;1.00;1.00
76101;PMS7003;64830;46.910;6.354;2022-11-15T05:57:21;1.50;1.50;0.50
76101;PMS7003;64830;46.910;6.354;2022-11-15T05:59:47;2.00;1.75;1.00
76101;PMS7003;64830;46.910;6.354;2022-11-15T06:02:12;1.00;1.00;1.00
76101;PMS7003;64830;46.910;6.354;2022-11-15T06:04:38;3.00;3.00;1.75
76101;PMS7003;64830;46.910;6.354;2022-11-15T06:07:03;1.00;1.00;1.00
76101;PMS7003;64830;46.910;6.354;2022-11-15T06:09:29;2.50;2.00;1.00
76101;PMS7003;64830;46.910;6.354;2022-11-15T06:11:54;2.25;2.25;1.00
76101;PMS7003;64830;46.910;6.354;2022-11-15T06:14:20;1.50;1.50;1.00
76101;PMS7003;64830;46.910;6.354;2022-11-15T06:16:45;2.00;2.00;2.00
76101;PMS7003;64830;46.910;6.354;2022-11-15T06:19:10;2.75;2.50;2.00
76101;PMS7003;64830;46.910;6.354;2022-11-15T06:21:36;2.00;2.00;1.25
76101;PMS7003;64830;46.910;6.354;2022-11-15T06:24:01;2.25;2.25;2.00
76101;PMS7003;64830;46.910;6.354;2022-11-15T06:26:27;3.00;2.50;2.00
76101;PMS7003;64830;46.910;6.354;2022-11-15T06:28:52;1.25;1.25;1.00
76101;PMS7003;64830;46.910;6.354;2022-11-15T06:31:18;3.00;3.00;1.75
76101;PMS7003;64830;46.910;6.354;2022-11-15T06:33:43;3.00;2.75;2.00
76101;PMS7003;64830;46.910;6.354;2022-11-15T06:36:10;2.00;2.00;1.50
76101;PMS7003;64830;46.910;6.354;2022-11-15T06:38:41;2.00;2.00;2.00
76101;PMS7003;64830;46.910;6.354;2022-11-15T06:41:08;1.50;1.25;0.75
76101;PMS7003;64830;46.910;6.354;2022-11-15T06:43:35;3.00;2.00;1.25
76101;PMS7003;64830;46.910;6.354;2022-11-15T06:46:01;1.50;1.00;1.00
76101;PMS7003;64830;46.910;6.354;2022-11-15T06:48:28;2.00;2.00;2.00
76101;PMS7003;64830;46.910;6.354;2022-11-15T06:50:55;1.75;1.75;1.00
76101;PMS7003;64830;46.910;6.354;2022-11-15T06:53:22;1.25;1.25;1.25
76101;PMS7003;64830;46.910;6.354;2022-11-15T06:55:48;2.00;1.50;1.00
76101;PMS7003;64830;46.910;6.354;2022-11-15T06:58:13;2.25;2.00;2.00
76101;PMS7003;64830;46.910;6.354;2022-11-15T07:00:39;2.00;2.00;1.00
76101;PMS7003;64830;46.910;6.354;2022-11-15T07:03:05;2.75;1.75;1.00
76101;PMS7003;64830;46.910;6.354;2022-11-15T07:05:30;2.50;1.00;0.75
76101;PMS7003;64830;46.910;6.354;2022-11-15T07:07:56;2.00;2.00;2.00
76101;PMS7003;64830;46.910;6.354;2022-11-15T07:10:23;2.50;2.00;1.00
76101;PMS7003;64830;46.910;6.354;2022-11-15T07:12:53;1.00;1.00;1.00
76101;PMS7003;64830;46.910;6.354;2022-11-15T07:15:20;2.00;2.00;1.00
76101;PMS7003;64830;46.910;6.354;2022-11-15T07:17:46;2.00;2.00;1.00
76101;PMS7003;64830;46.910;6.354;2022-11-15T07:20:12;1.00;1.00;1.00
76101;PMS7003;64830;46.910;6.354;2022-11-15T07:22:38;1.00;1.00;0.00
76101;PMS7003;64830;46.910;6.354;2022-11-15T07:25:07;2.00;1.00;1.00
76101;PMS7003;64830;46.910;6.354;2022-11-15T07:27:33;0.25;0.00;0.00
76101;PMS7003;64830;46.910;6.354;2022-11-15T07:29:59;2.00;2.00;1.00
76101;PMS7003;64830;46.910;6.354;2022-11-15T07:32:25;1.50;1.00;1.00
76101;PMS7003;64830;46.910;6.354;2022-11-15T07:34:50;1.00;1.00;1.00
76101;PMS7003;64830;46.910;6.354;2022-11-15T07:37:16;1.00;0.50;0.00
76101;PMS7003;64830;46.910;6.354;2022-11-15T07:39:42;0.00;0.00;0.00
76101;PMS7003;64830;46.910;6.354;2022-11-15T07:42:07;0.50;0.00;0.00
76101;PMS7003;64830;46.910;6.354;2022-11-15T07:44:52;0.75;0.00;0.00
76101;PMS7003;64830;46.910;6.354;2022-11-15T07:47:17;0.00;0.00;0.00
76101;PMS7003;64830;46.910;6.354;2022-11-15T07:49:42;0.00;0.00;0.00
76101;PMS7003;64830;46.910;6.354;2022-11-15T07:52:08;1.00;1.00;1.00
76101;PMS7003;64830;46.910;6.354;2022-11-15T07:54:33;1.75;1.75;1.00
76101;PMS7003;64830;46.910;6.354;2022-11-15T07:56:59;1.00;0.00;0.00
76101;PMS7003;64830;46.910;6.354;2022-11-15T07:59:24;2.00;1.00;1.00
76101;PMS7003;64830;46.910;6.354;2022-11-15T08:01:49;0.00;0.00;0.00
76101;PMS7003;64830;46.910;6.354;2022-11-15T08:04:15;2.00;2.00;1.00
76101;PMS7003;64830;46.910;6.354;2022-11-15T08:06:40;2.50;2.50;1.75
76101;PMS7003;64830;46.910;6.354;2022-11-15T08:09:05;2.00;1.00;1.00
76101;PMS7003;64830;46.910;6.354;2022-11-15T08:11:31;2.25;2.00;1.00
76101;PMS7003;64830;46.910;6.354;2022-11-15T08:13:56;0.75;0.75;0.00
76101;PMS7003;64830;46.910;6.354;2022-11-15T08:16:22;3.00;2.00;1.25
76101;PMS7003;64830;46.910;6.354;2022-11-15T08:18:47;3.00;1.25;0.00
76101;PMS7003;64830;46.910;6.354;2022-11-15T08:21:17;0.25;0.25;0.00
76101;PMS7003;64830;46.910;6.354;2022-11-15T08:23:44;2.50;1.25;1.00
76101;PMS7003;64830;46.910;6.354;2022-11-15T08:26:10;2.00;2.00;1.00
76101;PMS7003;64830;46.910;6.354;2022-11-15T08:28:35;3.00;3.00;2.25
76101;PMS7003;64830;46.910;6.354;2022-11-15T08:31:02;2.00;2.00;1.25
76101;PMS7003;64830;46.910;6.354;2022-11-15T08:33:28;6.00;3.25;3.00
76101;PMS7003;64830;46.910;6.354;2022-11-15T08:35:56;2.00;2.00;1.00
76101;PMS7003;64830;46.910;6.354;2022-11-15T08:38:22;2.75;2.75;2.25
76101;PMS7003;64830;46.910;6.354;2022-11-15T08:40:48;2.00;2.00;1.50
76101;PMS7003;64830;46.910;6.354;2022-11-15T08:43:15;2.25;2.25;1.00
76101;PMS7003;64830;46.910;6.354;2022-11-15T08:45:40;1.75;1.75;1.00
76101;PMS7003;64830;46.910;6.354;2022-11-15T08:48:06;2.75;2.75;2.00
76101;PMS7003;64830;46.910;6.354;2022-11-15T08:50:31;3.75;2.00;2.00
76101;PMS7003;64830;46.910;6.354;2022-11-15T08:52:57;4.50;3.75;2.00
76101;PMS7003;64830;46.910;6.354;2022-11-15T08:55:22;2.00;2.00;2.00
76101;PMS7003;64830;46.910;6.354;2022-11-15T08:57:48;1.50;1.50;0.75
76101;PMS7003;64830;46.910;6.354;2022-11-15T09:00:15;1.00;1.00;1.00
76101;PMS7003;64830;46.910;6.354;2022-11-15T09:02:40;1.50;1.50;1.00
76101;PMS7003;64830;46.910;6.354;2022-11-15T09:05:06;1.00;1.00;1.00
76101;PMS7003;64830;46.910;6.354;2022-11-15T09:07:32;1.00;1.00;1.00
76101;PMS7003;64830;46.910;6.354;2022-11-15T09:09:58;0.00;0.00;0.00
76101;PMS7003;64830;46.910;6.354;2022-11-15T09:12:23;1.00;1.00;0.50
76101;PMS7003;64830;46.910;6.354;2022-11-15T09:14:49;2.00;2.00;1.25
76101;PMS7003;64830;46.910;6.354;2022-11-15T09:17:15;1.50;1.50;1.00
76101;PMS7003;64830;46.910;6.354;2022-11-15T09:19:40;1.00;1.00;0.75
76101;PMS7003;64830;46.910;6.354;2022-11-15T09:22:06;1.00;1.00;0.00
76101;PMS7003;64830;46.910;6.354;2022-11-15T09:24:33;0.75;0.75;0.25
76101;PMS7003;64830;46.910;6.354;2022-11-15T09:26:59;3.00;2.00;1.50
76101;PMS7003;64830;46.910;6.354;2022-11-15T09:29:24;1.00;1.00;1.00
76101;PMS7003;64830;46.910;6.354;2022-11-15T09:31:52;0.00;0.00;0.00
76101;PMS7003;64830;46.910;6.354;2022-11-15T09:34:17;2.50;2.00;2.00
76101;PMS7003;64830;46.910;6.354;2022-11-15T09:36:43;1.00;1.00;1.00
76101;PMS7003;64830;46.910;6.354;2022-11-15T09:39:09;2.25;1.00;1.00
76101;PMS7003;64830;46.910;6.354;2022-11-15T09:41:43;2.00;1.75;1.00
76101;PMS7003;64830;46.910;6.354;2022-11-15T09:44:38;1.00;1.00;1.00
76101;PMS7003;64830;46.910;6.354;2022-11-15T09:50:10;1.00;1.00;1.00
76101;PMS7003;64830;46.910;6.354;2022-11-15T09:52:38;1.00;1.00;1.00
76101;PMS7003;64830;46.910;6.354;2022-11-15T09:55:08;1.75;1.00;0.75
76101;PMS7003;64830;46.910;6.354;2022-11-15T09:57:39;1.00;1.00;0.25
76101;PMS7003;64830;46.910;6.354;2022-11-15T10:03:18;0.00;0.00;0.00
76101;PMS7003;64830;46.910;6.354;2022-11-15T10:05:50;1.00;0.00;0.00
76101;PMS7003;64830;46.910;6.354;2022-11-15T10:08:29;1.00;1.00;0.75
76101;PMS7003;64830;46.910;6.354;2022-11-15T10:11:24;0.00;0.00;0.00
76101;PMS7003;64830;46.910;6.354;2022-11-15T10:13:53;1.50;1.00;1.00
76101;PMS7003;64830;46.910;6.354;2022-11-15T10:19:21;0.00;0.00;0.00
76101;PMS7003;64830;46.910;6.354;2022-11-15T10:24:33;1.00;1.00;0.00
76101;PMS7003;64830;46.910;6.354;2022-11-15T10:27:04;0.75;0.50;0.25
76101;PMS7003;64830;46.910;6.354;2022-11-15T10:29:35;1.25;1.25;1.00
76101;PMS7003;64830;46.910;6.354;2022-11-15T10:32:01;0.00;0.00;0.00
76101;PMS7003;64830;46.910;6.354;2022-11-15T10:34:26;3.00;0.50;0.00
76101;PMS7003;64830;46.910;6.354;2022-11-15T10:39:21;2.00;1.00;1.00
76101;PMS7003;64830;46.910;6.354;2022-11-15T10:41:46;0.75;0.75;0.75
76101;PMS7003;64830;46.910;6.354;2022-11-15T10:46:44;0.75;0.75;0.00
76101;PMS7003;64830;46.910;6.354;2022-11-15T10:49:22;0.00;0.00;0.00
76101;PMS7003;64830;46.910;6.354;2022-11-15T10:51:54;1.00;1.00;1.00
76101;PMS7003;64830;46.910;6.354;2022-11-15T10:54:33;2.50;1.75;1.25
76101;PMS7003;64830;46.910;6.354;2022-11-15T10:57:07;3.00;2.00;1.00
76101;PMS7003;64830;46.910;6.354;2022-11-15T10:59:38;1.00;1.00;1.00
76101;PMS7003;64830;46.910;6.354;2022-11-15T11:05:50;1.75;1.75;1.25
76101;PMS7003;64830;46.910;6.354;2022-11-15T11:08:02;1.00;1.00;1.00
76101;PMS7003;64830;46.910;6.354;2022-11-15T11:10:57;1.25;1.00;1.00
76101;PMS7003;64830;46.910;6.354;2022-11-15T11:16:50;2.00;2.00;1.00
76101;PMS7003;64830;46.910;6.354;2022-11-15T11:19:18;1.00;1.00;1.00
76101;PMS7003;64830;46.910;6.354;2022-11-15T11:34:56;1.00;1.00;1.00
76101;PMS7003;64830;46.910;6.354;2022-11-15T11:40:30;1.00;0.75;0.50
76101;PMS7003;64830;46.910;6.354;2022-11-15T11:48:51;1.00;1.00;1.00
76101;PMS7003;64830;46.910;6.354;2022-11-15T11:51:28;1.00;1.00;1.00
76101;PMS7003;64830;46.910;6.354;2022-11-15T11:54:06;0.25;0.25;0.00
76101;PMS7003;64830;46.910;6.354;2022-11-15T11:56:56;1.00;1.00;0.75
76101;PMS7003;64830;46.910;6.354;2022-11-15T11:59:36;1.25;1.25;0.75
76101;PMS7003;64830;46.910;6.354;2022-11-15T12:02:15;1.00;0.75;0.75
76101;PMS7003;64830;46.910;6.354;2022-11-15T12:04:47;1.00;0.25;0.25
76101;PMS7003;64830;46.910;6.354;2022-11-15T12:07:27;4.00;2.00;1.25
76101;PMS7003;64830;46.910;6.354;2022-11-15T12:09:58;1.00;1.00;0.50
76101;PMS7003;64830;46.910;6.354;2022-11-15T12:12:50;2.00;2.00;1.00
76101;PMS7003;64830;46.910;6.354;2022-11-15T12:15:18;2.75;2.00;1.00
76101;PMS7003;64830;46.910;6.354;2022-11-15T12:17:50;2.00;2.00;1.25
76101;PMS7003;64830;46.910;6.354;2022-11-15T12:22:46;3.00;2.25;1.00
76101;PMS7003;64830;46.910;6.354;2022-11-15T12:25:50;2.00;1.25;1.00
76101;PMS7003;64830;46.910;6.354;2022-11-15T12:29:22;1.75;1.75;1.50
76101;PMS7003;64830;46.910;6.354;2022-11-15T12:31:30;3.00;3.00;1.00
76101;PMS7003;64830;46.910;6.354;2022-11-15T12:36:44;2.75;2.00;1.50
76101;PMS7003;64830;46.910;6.354;2022-11-15T12:39:14;2.00;2.00;2.00
76101;PMS7003;64830;46.910;6.354;2022-11-15T12:41:44;2.00;2.00;1.25
76101;PMS7003;64830;46.910;6.354;2022-11-15T12:46:59;2.00;1.00;1.00
76101;PMS7003;64830;46.910;6.354;2022-11-15T13:02:36;1.25;1.00;1.00
76101;PMS7003;64830;46.910;6.354;2022-11-15T13:17:54;1.00;1.00;1.00
76101;PMS7003;64830;46.910;6.354;2022-11-15T13:20:26;1.25;1.25;1.00
76101;PMS7003;64830;46.910;6.354;2022-11-15T13:30:39;3.00;2.75;2.00
76101;PMS7003;64830;46.910;6.354;2022-11-15T13:33:18;2.00;2.00;1.00
76101;PMS7003;64830;46.910;6.354;2022-11-15T13:35:50;4.00;1.00;1.00
76101;PMS7003;64830;46.910;6.354;2022-11-15T13:38:28;1.25;1.25;1.00
76101;PMS7003;64830;46.910;6.354;2022-11-15T13:40:56;2.75;1.75;1.25
76101;PMS7003;64830;46.910;6.354;2022-11-15T13:43:36;2.00;1.25;1.00
76101;PMS7003;64830;46.910;6.354;2022-11-15T13:48:38;2.00;1.00;1.00
76101;PMS7003;64830;46.910;6.354;2022-11-15T13:51:07;1.25;1.25;1.00
76101;PMS7003;64830;46.910;6.354;2022-11-15T13:53:40;3.00;3.00;1.50
76101;PMS7003;64830;46.910;6.354;2022-11-15T13:56:08;1.75;1.75;1.25
76101;PMS7003;64830;46.910;6.354;2022-11-15T13:58:36;2.00;2.00;1.00
76101;PMS7003;64830;46.910;6.354;2022-11-15T14:01:04;2.25;2.25;2.00
76101;PMS7003;64830;46.910;6.354;2022-11-15T14:03:34;2.00;2.00;1.25
76101;PMS7003;64830;46.910;6.354;2022-11-15T14:08:36;3.00;3.00;1.00
76101;PMS7003;64830;46.910;6.354;2022-11-15T14:11:07;4.00;1.00;1.00
76101;PMS7003;64830;46.910;6.354;2022-11-15T14:16:33;1.50;1.25;1.00
76101;PMS7003;64830;46.910;6.354;2022-11-15T14:19:00;4.25;3.00;2.00
76101;PMS7003;64830;46.910;6.354;2022-11-15T14:21:27;4.00;3.00;2.00
76101;PMS7003;64830;46.910;6.354;2022-11-15T14:23:52;3.25;3.00;2.00
76101;PMS7003;64830;46.910;6.354;2022-11-15T14:26:31;3.00;3.00;2.00
76101;PMS7003;64830;46.910;6.354;2022-11-15T14:31:49;2.00;2.00;2.00
76101;PMS7003;64830;46.910;6.354;2022-11-15T14:34:14;3.00;1.00;1.00
76101;PMS7003;64830;46.910;6.354;2022-11-15T14:36:39;3.00;3.00;2.00
76101;PMS7003;64830;46.910;6.354;2022-11-15T14:39:05;2.25;2.00;1.25
76101;PMS7003;64830;46.910;6.354;2022-11-15T14:41:33;2.00;2.00;2.00
76101;PMS7003;64830;46.910;6.354;2022-11-15T14:44:02;2.25;2.25;2.00
76101;PMS7003;64830;46.910;6.354;2022-11-15T14:46:29;1.00;1.00;1.00
76101;PMS7003;64830;46.910;6.354;2022-11-15T14:48:54;5.00;2.00;2.00
76101;PMS7003;64830;46.910;6.354;2022-11-15T14:51:19;4.50;3.50;3.00
76101;PMS7003;64830;46.910;6.354;2022-11-15T14:53:45;2.00;2.00;2.00
76101;PMS7003;64830;46.910;6.354;2022-11-15T14:56:11;4.75;2.00;1.25
76101;PMS7003;64830;46.910;6.354;2022-11-15T14:58:37;2.75;2.00;2.00
76101;PMS7003;64830;46.910;6.354;2022-11-15T15:01:09;4.75;3.50;3.00
76101;PMS7003;64830;46.910;6.354;2022-11-15T15:03:39;3.00;2.00;2.00
76101;PMS7003;64830;46.910;6.354;2022-11-15T15:06:04;3.25;3.25;2.25
76101;PMS7003;64830;46.910;6.354;2022-11-15T15:08:30;4.00;4.00;3.25
76101;PMS7003;64830;46.910;6.354;2022-11-15T15:10:55;5.25;3.75;3.00
76101;PMS7003;64830;46.910;6.354;2022-11-15T15:13:22;3.50;3.50;3.00
76101;PMS7003;64830;46.910;6.354;2022-11-15T15:15:49;5.75;4.50;3.50
76101;PMS7003;64830;46.910;6.354;2022-11-15T15:18:16;3.00;3.00;2.00
76101;PMS7003;64830;46.910;6.354;2022-11-15T15:20:42;4.25;4.00;2.00
76101;PMS7003;64830;46.910;6.354;2022-11-15T15:23:20;5.25;5.00;4.00
76101;PMS7003;64830;46.910;6.354;2022-11-15T15:25:46;5.25;4.00;3.00
76101;PMS7003;64830;46.910;6.354;2022-11-15T15:28:13;3.00;3.00;2.25
76101;PMS7003;64830;46.910;6.354;2022-11-15T15:30:39;3.25;3.25;3.00
76101;PMS7003;64830;46.910;6.354;2022-11-15T15:33:06;3.75;3.75;3.50
76101;PMS7003;64830;46.910;6.354;2022-11-15T15:35:32;3.50;3.25;2.75
76101;PMS7003;64830;46.910;6.354;2022-11-15T15:37:58;2.25;2.25;2.00
76101;PMS7003;64830;46.910;6.354;2022-11-15T15:40:25;5.00;4.00;3.00
76101;PMS7003;64830;46.910;6.354;2022-11-15T15:42:52;4.75;4.75;4.50
76101;PMS7003;64830;46.910;6.354;2022-11-15T15:45:18;4.75;4.75;4.00
76101;PMS7003;64830;46.910;6.354;2022-11-15T15:47:44;5.25;4.75;3.25
76101;PMS7003;64830;46.910;6.354;2022-11-15T15:52:47;10.50;10.50;6.50
76101;PMS7003;64830;46.910;6.354;2022-11-15T15:55:14;6.00;5.00;4.00
76101;PMS7003;64830;46.910;6.354;2022-11-15T15:57:39;7.00;6.00;4.75
76101;PMS7003;64830;46.910;6.354;2022-11-15T16:00:05;12.00;11.50;8.75
76101;PMS7003;64830;46.910;6.354;2022-11-15T16:02:31;11.00;11.00;8.00
76101;PMS7003;64830;46.910;6.354;2022-11-15T16:04:56;7.00;6.00;5.00
76101;PMS7003;64830;46.910;6.354;2022-11-15T16:07:22;5.00;4.25;3.75
76101;PMS7003;64830;46.910;6.354;2022-11-15T16:09:50;6.50;5.50;5.00
76101;PMS7003;64830;46.910;6.354;2022-11-15T16:12:28;5.25;4.75;4.25
76101;PMS7003;64830;46.910;6.354;2022-11-15T16:14:58;9.75;5.75;4.75
76101;PMS7003;64830;46.910;6.354;2022-11-15T16:17:25;7.00;7.00;6.00
76101;PMS7003;64830;46.910;6.354;2022-11-15T16:19:53;6.50;5.75;5.00
76101;PMS7003;64830;46.910;6.354;2022-11-15T16:22:19;3.75;3.50;2.75
76101;PMS7003;64830;46.910;6.354;2022-11-15T16:24:44;8.75;7.00;6.00
76101;PMS7003;64830;46.910;6.354;2022-11-15T16:27:16;10.00;9.00;6.00
76101;PMS7003;64830;46.910;6.354;2022-11-15T16:29:44;11.50;10.00;6.25
76101;PMS7003;64830;46.910;6.354;2022-11-15T16:32:10;5.00;4.00;3.00
76101;PMS7003;64830;46.910;6.354;2022-11-15T16:34:35;10.75;9.75;6.75
76101;PMS7003;64830;46.910;6.354;2022-11-15T16:37:01;8.75;6.00;4.25
76101;PMS7003;64830;46.910;6.354;2022-11-15T16:39:26;10.00;7.00;5.00
76101;PMS7003;64830;46.910;6.354;2022-11-15T16:41:55;10.00;9.75;6.00
76101;PMS7003;64830;46.910;6.354;2022-11-15T16:44:21;5.50;5.50;5.00
76101;PMS7003;64830;46.910;6.354;2022-11-15T16:46:48;10.50;9.50;5.00
76101;PMS7003;64830;46.910;6.354;2022-11-15T16:49:16;11.00;9.00;6.00
76101;PMS7003;64830;46.910;6.354;2022-11-15T16:51:43;8.75;5.75;4.00